Latest Weather Observations for Territory Grape Farm

IDD60801

Issued at 6:35 am CST Saturday 29 November 2014 (issued every 30 minutes, with the page automatically refreshed every 10 minutes)

About weather observations | Map of weather stations | Latest weather observations for NT | Other Formats
Station Details ID: 015643 Name: TERRITORY GRAPE FARM Lat: -22.45 Lon: 133.64 Height: 565.6 m
Data from the previous 72 hours. | See also: Recent months at Territory Grape Farm
Date/Time
CST
Temp
°C
App
Temp
°C
Dew
Point
Rel
Hum
%
Delta-T
°C
Wind Press
QNH
hPa
Press
MSL
hPa
Rain
since 9 am
mm
Dir
 
Spd
km/h
Gust
km/h
Spd
kts
Gust
kts
29/06:30am 26.3 24.7 8.8 33 9.8 E 7 11 4 6 1011.3 1007.4 -
29/06:00am 23.2 20.9 7.3 36 8.5 SE 9 9 5 5 1010.8 1006.8 -
29/05:30am 24.1 22.1 6.4 32 9.4 SE 6 7 3 4 1010.5 1006.6 -
29/05:00am 23.8 21.7 6.6 33 9.1 SE 7 9 4 5 1010.3 1006.4 -
29/04:30am 23.3 21.5 7.0 35 8.7 ESE 6 7 3 4 1010.1 1006.2 -
29/04:00am 24.7 22.5 6.0 30 9.9 SE 7 9 4 5 1009.9 1006.0 0.0
29/03:30am 25.1 22.8 5.8 29 10.2 SE 7 9 4 5 1009.9 1006.0 0.0
29/03:00am 25.8 23.2 5.9 28 10.6 SE 9 9 5 5 1010.2 1006.3 0.0
29/02:30am 24.7 22.6 6.0 30 9.9 ESE 6 7 3 4 1010.2 1006.3 0.0
29/02:00am 25.7 23.4 5.8 28 10.5 SE 7 9 4 5 1010.3 1006.4 0.0
29/01:30am 25.9 23.4 6.5 29 10.4 SE 9 9 5 5 1010.3 1006.4 0.0
29/01:00am 26.3 23.6 5.8 27 10.9 SE 9 11 5 6 1010.4 1006.5 0.0
29/12:30am 26.7 23.6 5.6 26 11.2 ESE 11 13 6 7 1010.7 1006.7 0.0
29/12:00am 27.8 25.1 5.4 24 11.9 SSE 9 11 5 6 1010.4 1006.5 0.0
 
Date/Time
CST
Temp
°C
App
Temp
°C
Dew
Point
Rel
Hum
%
Delta-T
°C
Wind Press
QNH
hPa
Press
MSL
hPa
Rain
since 9 am
mm
Dir
 
Spd
km/h
Gust
km/h
Spd
kts
Gust
kts
28/11:30pm 28.4 25.6 5.3 23 12.3 SSE 9 13 5 7 1010.5 1006.6 0.0
28/11:00pm 29.1 26.5 5.9 23 12.5 SSE 9 13 5 7 1010.7 1006.7 0.0
28/10:30pm 29.5 26.9 6.2 23 12.7 SSE 9 13 5 7 1011.0 1007.1 0.0
28/10:00pm 29.9 28.1 7.8 25 12.4 SE 7 9 4 5 1011.0 1007.1 0.0
28/09:30pm 31.9 30.0 7.5 22 13.7 SSE 7 9 4 5 1010.8 1006.8 0.0
28/09:00pm 31.8 30.1 7.5 22 13.7 SSE 6 9 3 5 1010.4 1006.5 0.0
28/08:30pm 30.8 28.9 9.1 26 12.5 E 9 9 5 5 1010.2 1006.3 0.0
28/08:00pm 31.9 30.3 8.2 23 13.5 SSE 6 6 3 3 1009.9 1006.0 0.0
28/07:30pm 33.0 31.9 8.5 22 14.1 SSE 4 6 2 3 1009.6 1005.7 0.0
28/07:00pm 34.5 32.6 7.5 19 15.4 SSE 7 9 4 5 1009.3 1005.4 0.0
28/06:30pm 35.3 33.6 8.2 19 15.7 SSE 7 11 4 6 1009.2 1005.3 0.0
28/06:00pm 36.1 33.4 7.2 17 16.5 SSE 11 17 6 9 1009.1 1005.1 0.0
28/05:30pm 36.0 34.4 8.7 19 15.9 ESE 7 13 4 7 1009.0 1005.0 0.0
28/05:00pm 36.2 34.4 7.3 17 16.5 S 6 11 3 6 1008.9 1004.9 0.0
28/04:30pm 36.5 34.2 7.5 17 16.7 SSE 9 15 5 8 1009.1 1005.1 0.0
28/04:00pm 37.6 34.6 7.5 16 17.4 E 13 19 7 10 1009.3 1005.4 0.0
28/03:30pm 37.8 36.3 8.6 17 17.2 S 6 22 3 12 1009.6 1005.7 0.0
28/03:00pm 37.3 35.3 7.3 16 17.2 SE 7 13 4 7 1009.9 1006.0 0.0
28/02:30pm 37.0 34.0 7.9 17 16.9 SSE 13 20 7 11 1010.2 1006.3 0.0
28/02:00pm 37.3 35.2 8.2 17 16.9 SSW 9 19 5 10 1010.8 1006.8 0.0
28/01:30pm 36.1 33.7 7.2 17 16.5 SE 9 20 5 11 1011.3 1007.4 0.0
28/01:00pm 36.3 34.2 8.2 18 16.3 E 9 19 5 10 1011.9 1008.0 0.0
28/12:30pm 35.4 32.7 7.5 18 15.9 S 11 24 6 13 1012.4 1008.6 0.0
28/12:00pm 35.7 33.5 7.7 18 16.1 ESE 9 17 5 9 1012.9 1009.0 0.0
28/11:30am 34.2 32.4 8.0 20 15.0 E 7 19 4 10 1013.4 1009.5 0.0
28/11:00am 34.1 31.7 8.7 21 14.7 E 11 20 6 11 1013.8 1009.9 0.0
28/10:30am 33.0 29.3 7.8 21 14.3 ESE 17 24 9 13 1014.2 1010.4 0.0
28/10:00am 33.2 30.2 7.9 21 14.4 E 13 20 7 11 1014.6 1010.7 0.0
28/09:30am 31.9 28.7 6.9 21 13.9 E 13 20 7 11 1014.8 1010.9 0.0
28/09:00am 31.0 27.3 4.7 19 14.0 ESE 13 19 7 10 1014.9 1011.0 0.0
28/08:30am 29.3 25.1 4.0 20 13.2 ESE 15 20 8 11 1015.0 1011.1 0.0
28/08:00am 28.2 23.5 3.1 20 12.8 ESE 17 24 9 13 1014.8 1010.9 0.0
28/07:30am 27.9 22.6 2.9 20 12.7 ESE 20 30 11 16 1014.5 1010.6 0.0
28/07:00am 26.7 22.1 3.9 23 11.7 ESE 17 24 9 13 1014.4 1010.5 0.0
28/06:30am 24.9 22.6 5.7 29 10.1 SE 7 11 4 6 1014.5 1010.6 0.0
28/06:00am 23.7 20.8 4.6 29 9.8 SSE 9 11 5 6 1014.0 1010.2 0.0
28/05:30am 23.3 20.1 5.2 31 9.3 SE 11 13 6 7 1014.0 1010.2 0.0
28/05:00am 22.8 19.8 6.1 34 8.7 ESE 11 11 6 6 1013.5 1009.6 0.0
28/04:30am 23.9 21.3 6.2 32 9.3 SE 9 13 5 7 1013.4 1009.5 0.0
28/04:00am 24.5 22.0 6.7 32 9.5 SSE 9 13 5 7 1013.4 1009.5 0.0
28/03:30am 23.8 21.4 7.0 34 9.0 SE 9 13 5 7 1013.4 1009.5 0.0
28/03:00am 24.8 21.5 6.5 31 9.7 SE 13 19 7 10 1013.5 1009.6 0.0
28/02:30am 24.2 21.9 7.4 34 9.1 SSE 9 13 5 7 1013.6 1009.7 0.0
28/02:00am 24.3 21.3 7.9 35 8.9 SE 13 17 7 9 1013.7 1009.8 0.0
28/01:30am 25.0 23.0 8.5 35 9.1 SSE 9 11 5 6 1013.9 1010.0 0.0
28/01:00am 25.5 24.1 9.7 37 8.9 SE 7 9 4 5 1014.2 1010.4 0.0
28/12:30am 25.6 24.4 10.2 38 8.8 SE 7 9 4 5 1014.5 1010.6 0.0
28/12:00am 24.9 23.8 11.8 44 7.6 SE 9 11 5 6 1014.7 1010.8 0.0
 
Date/Time
CST
Temp
°C
App
Temp
°C
Dew
Point
Rel
Hum
%
Delta-T
°C
Wind Press
QNH
hPa
Press
MSL
hPa
Rain
since 9 am
mm
Dir
 
Spd
km/h
Gust
km/h
Spd
kts
Gust
kts
27/11:30pm 24.2 23.2 12.2 47 7.0 ESE 9 11 5 6 1014.9 1011.0 0.0
27/11:00pm 25.1 24.6 12.0 44 7.7 E 6 9 3 5 1015.0 1011.1 0.0
27/10:30pm 26.4 25.8 11.7 40 8.6 ESE 6 7 3 4 1015.0 1011.1 0.0
27/10:00pm 27.6 26.8 11.2 36 9.6 ENE 6 9 3 5 1015.0 1011.1 0.0
27/09:30pm 28.5 27.2 11.1 34 10.2 ENE 9 11 5 6 1014.8 1010.9 0.0
27/09:00pm 28.0 26.4 10.2 33 10.3 E 9 13 5 7 1014.6 1010.7 0.0
27/08:30pm 28.7 27.8 9.4 30 11.0 NE 4 6 2 3 1014.0 1010.2 0.0
27/08:00pm 29.6 27.9 9.7 29 11.5 ENE 9 11 5 6 1013.6 1009.7 0.0
27/07:30pm 30.0 28.2 9.5 28 11.8 E 9 11 5 6 1013.2 1009.3 0.0
27/07:00pm 31.3 28.0 9.5 26 12.6 ENE 17 20 9 11 1013.0 1009.1 0.0
27/06:30pm 32.0 28.8 10.1 26 12.8 NE 17 22 9 12 1012.6 1008.7 0.0
27/06:00pm 32.0 29.2 10.1 26 12.8 ENE 15 22 8 12 1012.4 1008.6 0.0
27/05:30pm 32.0 28.8 10.1 26 12.8 ENE 17 22 9 12 1012.4 1008.6 0.0
27/05:00pm 32.4 28.8 9.9 25 13.2 NE 19 26 10 14 1012.7 1008.8 0.0
27/04:30pm 32.6 28.1 10.0 25 13.2 NE 24 33 13 18 1012.7 1008.8 0.0
27/04:00pm 32.8 28.9 9.6 24 13.5 NE 20 26 11 14 1012.8 1008.9 0.0
27/03:30pm 32.4 29.0 9.2 24 13.4 NE 17 22 9 12 1013.2 1009.3 0.0
27/03:00pm 32.4 30.0 8.6 23 13.6 NE 11 19 6 10 1013.3 1009.4 0.0
27/02:30pm 32.6 28.0 8.1 22 13.9 NNE 22 30 12 16 1013.5 1009.6 0.0
27/02:00pm 33.6 30.9 9.0 22 14.3 ESE 13 19 7 10 1013.8 1009.9 0.0
27/01:30pm 32.9 30.1 7.0 20 14.5 ESE 11 15 6 8 1014.0 1010.2 0.0
27/01:00pm 33.2 30.5 7.2 20 14.6 E 11 20 6 11 1014.4 1010.5 0.0
27/12:30pm 33.5 29.9 5.1 17 15.5 SSE 13 22 7 12 1014.7 1010.8 0.0
27/12:00pm 32.6 29.0 5.2 18 14.9 S 13 20 7 11 1015.2 1011.3 0.0
27/11:30am 32.5 28.6 3.5 16 15.3 SSE 13 24 7 13 1015.5 1011.6 0.0
27/11:00am 32.2 28.2 4.9 18 14.7 SSE 15 28 8 15 1015.9 1012.1 0.0
27/10:30am 31.5 26.3 2.7 16 14.9 SE 19 28 10 15 1016.1 1012.3 0.0
27/10:00am 30.3 25.6 3.4 18 14.0 SE 17 22 9 12 1016.5 1012.6 0.0
27/09:30am 29.5 24.6 1.9 17 13.9 SSE 17 24 9 13 1016.4 1012.5 0.0
27/09:00am 28.6 24.0 3.5 20 12.9 SSE 17 26 9 14 1016.3 1012.4 0.0
27/08:30am 27.9 23.4 2.2 19 12.9 SSE 15 22 8 12 1016.5 1012.6 0.0
27/08:00am 27.6 24.1 3.3 21 12.4 SSE 11 17 6 9 1016.5 1012.6 0.0
27/07:30am 26.8 24.0 5.1 25 11.4 SSE 9 13 5 7 1016.4 1012.5 0.0
27/07:00am 26.5 24.6 4.9 25 11.3 SW 4 7 2 4 1016.4 1012.5 0.0
27/06:30am 25.6 23.4 5.2 27 10.6 ESE 6 9 3 5 1015.8 1012.0 0.0
27/06:00am 25.3 23.2 6.0 29 10.2 SSE 6 11 3 6 1015.3 1011.4 0.0
27/05:30am 26.3 22.4 5.3 26 11.0 ESE 15 20 8 11 1014.8 1010.9 0.0
27/05:00am 26.6 23.6 6.1 27 10.9 ESE 11 17 6 9 1014.9 1011.0 0.0
27/04:30am 27.4 23.8 6.8 27 11.2 ESE 15 19 8 10 1014.8 1010.9 0.0
27/04:00am 27.4 24.8 7.8 29 10.8 ESE 11 17 6 9 1014.4 1010.5 0.0
27/03:30am 27.9 24.3 8.2 29 11.0 ESE 17 24 9 13 1013.9 1010.0 0.0
27/03:00am 27.6 25.4 9.4 32 10.3 ESE 11 15 6 8 1013.7 1009.8 0.0
27/02:30am 27.9 26.0 9.2 31 10.6 ESE 9 13 5 7 1013.5 1009.6 0.0
27/02:00am 28.5 25.1 9.2 30 11.0 ESE 17 22 9 12 1013.3 1009.4 0.0
27/01:30am 28.3 26.3 10.0 32 10.5 SE 11 15 6 8 1013.3 1009.4 0.0
27/01:00am 28.1 26.5 10.3 33 10.3 SE 9 11 5 6 1013.5 1009.6 0.0
27/12:30am 29.6 26.9 10.2 30 11.3 ESE 15 19 8 10 1013.8 1009.9 0.0
27/12:00am 29.8 26.7 10.4 30 11.3 ESE 17 26 9 14 1014.0 1010.2 0.0
 
Date/Time
CST
Temp
°C
App
Temp
°C
Dew
Point
Rel
Hum
%
Delta-T
°C
Wind Press
QNH
hPa
Press
MSL
hPa
Rain
since 9 am
mm
Dir
 
Spd
km/h
Gust
km/h
Spd
kts
Gust
kts
26/11:30pm 29.9 27.2 10.5 30 11.3 ESE 15 20 8 11 1013.9 1010.0 0.0
26/11:00pm 29.8 27.6 10.9 31 11.1 ESE 13 17 7 9 1014.0 1010.2 0.0
26/10:30pm 30.4 27.0 10.4 29 11.7 ESE 19 24 10 13 1014.0 1010.2 0.0
26/10:00pm 31.0 27.7 10.9 29 11.9 ESE 19 26 10 14 1013.7 1009.8 0.0
26/09:30pm 31.7 28.4 11.0 28 12.3 ESE 19 30 10 16 1013.3 1009.4 0.0
26/09:00pm 31.7 29.2 11.0 28 12.3 ESE 15 24 8 13 1013.1 1009.2 0.0
26/08:30pm 31.1 29.3 11.0 29 11.9 ESE 11 15 6 8 1012.8 1008.9 0.0
26/08:00pm 32.0 29.4 10.7 27 12.6 E 15 17 8 9 1012.3 1008.4 0.0
26/07:30pm 32.4 29.3 10.4 26 13.0 E 17 24 9 13 1012.0 1008.1 0.0
26/07:00pm 31.9 29.4 11.1 28 12.4 SE 15 20 8 11 1011.7 1007.8 0.0
26/06:30pm 32.4 27.0 11.0 27 12.7 ESE 30 44 16 24 1011.6 1007.7 0.0
26/06:00pm 33.6 28.6 10.9 25 13.6 E 28 41 15 22 1011.3 1007.4 0.0
26/05:30pm 34.0 28.7 9.9 23 14.2 E 28 39 15 21 1011.2 1007.3 0.0
26/05:00pm 34.3 30.8 10.8 24 14.0 E 20 30 11 16 1011.2 1007.3 0.0
26/04:30pm 34.0 31.2 11.2 25 13.7 ESE 17 22 9 12 1011.2 1007.3 0.0
26/04:00pm 34.6 30.4 11.1 24 14.1 E 24 39 13 21 1011.5 1007.6 0.0
26/03:30pm 35.4 32.0 11.1 23 14.7 SE 20 35 11 19 1011.7 1007.8 0.0
26/03:00pm 34.1 30.5 11.9 26 13.5 E 22 30 12 16 1012.0 1008.1 0.0
26/02:30pm 34.2 31.8 12.5 27 13.3 ESE 17 26 9 14 1012.2 1008.3 0.0
26/02:00pm 35.3 33.4 12.9 26 13.8 SE 15 24 8 13 1012.7 1008.8 0.0
26/01:30pm 34.9 31.9 12.5 25 13.8 E 20 33 11 18 1013.3 1009.4 0.0
26/01:00pm 33.2 30.0 11.1 26 13.2 ESE 19 28 10 15 1013.8 1009.9 0.0
26/12:30pm 33.7 30.7 12.1 27 13.1 ENE 19 30 10 16 1014.4 1010.5 0.0
26/12:00pm 33.0 29.9 12.1 28 12.7 SE 20 32 11 17 1014.8 1010.9 0.0
26/11:30am 32.5 29.4 12.2 29 12.3 SE 20 24 11 13 1015.3 1011.4 0.0
26/11:00am 31.7 28.3 12.5 31 11.6 ESE 22 32 12 17 1015.8 1012.0 0.0
26/10:30am 31.0 27.4 11.9 31 11.4 E 22 32 12 17 1016.3 1012.4 0.0
26/10:00am 30.0 27.0 12.4 34 10.6 ESE 20 30 11 16 1016.5 1012.6 0.0
26/09:30am 28.6 24.7 12.1 36 9.8 ESE 24 32 13 17 1016.8 1012.9 0.0
26/09:00am 27.0 23.4 11.9 39 8.9 ESE 22 30 12 16 1016.8 1012.9 0.0
26/08:30am 26.1 22.5 11.8 41 8.4 ESE 22 32 12 17 1016.5 1012.6 0.0
26/08:00am 26.3 22.6 11.6 40 8.6 SE 22 35 12 19 1016.3 1012.4 0.0
26/07:30am 24.7 22.1 12.0 45 7.4 SE 17 24 9 13 1016.0 1012.2 0.0
26/07:00am 23.4 21.4 11.5 47 6.9 SE 13 17 7 9 1016.1 1012.3 0.0

Other Formats:

Comma delimited format used in spreadsheet applications
http://www.bom.gov.au/fwo/IDD60801/IDD60801.94328.axf

JavaScript Object Notation format (JSON) in row-major order
http://www.bom.gov.au/fwo/IDD60801/IDD60801.94328.json